createdAt,value
2023-04-19T04:39:19.158Z,99738.94
2023-04-19T04:41:48.189Z,99733.54
2023-04-19T04:44:16.234Z,99728.12
2023-04-19T04:46:44.545Z,99727.23
2023-04-19T04:49:14.383Z,99726.31
2023-04-19T04:51:43.233Z,99729.06
2023-04-19T04:54:11.762Z,99727.96
2023-04-19T04:56:39.925Z,99720.44
2023-04-19T04:59:08.443Z,99716.52
2023-04-19T05:01:39.263Z,99716.13
2023-04-19T05:04:07.750Z,99717.11
2023-04-19T05:06:36.369Z,99713.52
2023-04-19T05:09:04.809Z,99713.60
2023-04-19T05:11:35.805Z,99710.73
2023-04-19T05:14:04.095Z,99713.24
2023-04-19T05:16:33.076Z,99711.75
2023-04-19T05:19:01.712Z,99707.46
2023-04-19T05:21:33.274Z,99708.44
2023-04-19T05:24:03.134Z,99709.38
2023-04-19T05:26:32.500Z,99705.06
2023-04-19T05:29:01.934Z,99706.16
2023-04-19T05:31:44.726Z,99704.11
2023-04-19T05:34:22.391Z,99705.39
2023-04-19T05:37:01.611Z,99705.08
2023-04-19T05:39:34.793Z,99701.43
2023-04-19T05:42:05.795Z,99701.61
2023-04-19T05:44:44.666Z,99704.61
2023-04-19T05:47:13.752Z,99705.69
2023-04-19T05:50:18.572Z,99702.59
2023-04-19T05:53:30.007Z,99704.75
2023-04-19T05:59:30.865Z,99708.89
2023-04-19T06:02:38.383Z,99718.30
2023-04-19T06:05:23.528Z,99722.46
2023-04-19T06:08:06.962Z,99726.45
2023-04-19T06:10:55.708Z,99729.73
2023-04-19T06:13:30.364Z,99734.41
2023-04-19T06:16:06.719Z,99730.94
2023-04-19T06:18:54.694Z,99734.96
2023-04-19T06:22:08.133Z,99730.38
2023-04-19T06:24:54.168Z,99724.35
2023-04-19T06:27:35.924Z,99718.70
2023-04-19T06:30:10.323Z,99710.08
2023-04-19T06:32:38.571Z,99709.79
2023-04-19T06:35:07.165Z,99699.48
2023-04-19T06:37:36.823Z,99696.15
2023-04-19T06:40:08.922Z,99687.89
2023-04-19T06:42:38.648Z,99690.92
2023-04-19T06:45:09.876Z,99689.05
2023-04-19T06:47:38.838Z,99688.10
2023-04-19T06:50:12.317Z,99684.02
2023-04-19T06:52:42.630Z,99685.05
2023-04-19T06:55:11.226Z,99679.01
2023-04-19T06:57:39.334Z,99675.20
2023-04-19T07:00:08.064Z,99674.70
2023-04-19T07:03:25.955Z,99679.73
2023-04-19T07:06:18.915Z,99680.35
2023-04-19T07:09:56.587Z,99678.82
2023-04-19T07:13:08.679Z,99683.55
2023-04-19T07:15:43.841Z,99684.30
2023-04-19T07:18:37.461Z,99689.71
2023-04-19T07:21:29.467Z,99689.34
2023-04-19T07:24:45.398Z,99684.94
2023-04-19T07:27:44.885Z,99684.57
2023-04-19T07:30:13.054Z,99683.73
2023-04-19T07:32:42.466Z,99685.73
2023-04-19T07:35:13.554Z,99687.33
2023-04-19T07:37:42.073Z,99679.95
2023-04-19T07:40:10.325Z,99678.66
2023-04-19T07:42:38.539Z,99672.52
2023-04-19T07:45:07.339Z,99669.95
2023-04-19T07:47:35.334Z,99668.79
2023-04-19T07:50:04.525Z,99669.19
2023-04-19T07:52:33.915Z,99669.73
2023-04-19T07:55:03.771Z,99668.30
2023-04-19T07:57:32.367Z,99668.55
2023-04-19T08:00:02.017Z,99663.48
2023-04-19T08:02:31.752Z,99664.58
2023-04-19T08:05:03.152Z,99665.98
2023-04-19T08:07:38.447Z,99663.48
2023-04-19T08:10:07.757Z,99668.05
2023-04-19T08:12:45.257Z,99666.23
2023-04-19T08:17:57.380Z,99666.42
2023-04-19T08:20:25.779Z,99668.73
2023-04-19T08:22:54.516Z,99676.42
2023-04-19T08:25:26.891Z,99677.40
2023-04-19T08:27:55.400Z,99677.05
2023-04-19T08:30:24.086Z,99675.09
2023-04-19T08:32:53.146Z,99673.33
2023-04-19T08:35:23.395Z,99677.58
2023-04-19T08:37:51.665Z,99677.11
2023-04-19T08:40:20.829Z,99675.52
2023-04-19T08:43:38.125Z,99672.58
2023-04-19T08:46:24.061Z,99672.01
2023-04-19T08:48:53.553Z,99672.11
2023-04-19T08:51:25.375Z,99664.81
2023-04-19T08:58:26.272Z,99664.63
2023-04-19T09:01:33.982Z,99657.20
2023-04-19T09:04:26.036Z,99657.77
2023-04-19T09:06:59.817Z,99653.89
2023-04-19T09:09:43.035Z,99657.06
2023-04-19T09:12:18.642Z,99659.65
2023-04-19T09:15:01.944Z,99662.27
2023-04-19T09:17:48.720Z,99664.73
2023-04-19T09:20:16.929Z,99658.67
2023-04-19T09:23:08.021Z,99660.18
2023-04-19T09:26:23.471Z,99658.64
2023-04-19T09:29:07.770Z,99655.27
2023-04-19T09:34:21.003Z,99661.52
2023-04-19T09:37:28.044Z,99659.52
2023-04-19T09:40:44.814Z,99661.30
2023-04-19T09:51:23.900Z,99659.39
2023-04-19T09:54:46.730Z,99660.13
2023-04-19T09:57:26.851Z,99655.29
2023-04-19T09:59:55.060Z,99658.62
2023-04-19T10:02:24.312Z,99660.34
2023-04-19T10:07:30.710Z,99664.12
2023-04-19T10:10:16.011Z,99670.66
2023-04-19T10:15:22.051Z,99669.25
2023-04-19T10:17:50.362Z,99672.65
2023-04-19T10:20:30.911Z,99673.71
2023-04-19T10:22:59.601Z,99677.72
2023-04-19T10:25:29.928Z,99682.20
2023-04-19T10:27:58.810Z,99685.05
2023-04-19T10:30:29.955Z,99690.60
2023-04-19T10:32:58.682Z,99692.95
2023-04-19T10:35:29.523Z,99691.34
2023-04-19T10:38:07.510Z,99694.56
2023-04-19T10:40:55.321Z,99696.41
2023-04-19T10:43:24.088Z,99700.95
2023-04-19T10:45:52.525Z,99701.84
2023-04-19T10:48:32.066Z,99702.04
2023-04-19T10:51:04.762Z,99699.72
2023-04-19T10:53:49.213Z,99697.84
2023-04-19T10:56:28.995Z,99695.42
2023-04-19T10:59:15.170Z,99697.04
2023-04-19T11:01:47.280Z,99697.16
2023-04-19T11:04:16.031Z,99695.50
2023-04-19T11:06:53.410Z,99699.98
2023-04-19T11:09:28.249Z,99698.28
2023-04-19T11:12:01.176Z,99695.20
2023-04-19T11:14:34.810Z,99700.08
2023-04-19T11:17:03.764Z,99701.80
2023-04-19T11:19:32.569Z,99701.31
2023-04-19T11:22:00.592Z,99705.98
2023-04-19T11:24:28.501Z,99708.95
2023-04-19T11:26:57.801Z,99706.08
2023-04-19T11:29:25.708Z,99710.39
2023-04-19T11:31:53.694Z,99704.73
2023-04-19T11:34:24.740Z,99705.73
2023-04-19T11:36:52.823Z,99708.81
2023-04-19T11:39:21.936Z,99703.43
2023-04-19T11:41:49.990Z,99703.74
2023-04-19T11:44:20.297Z,99703.59
2023-04-19T11:46:57.896Z,99697.67
2023-04-19T11:49:32.750Z,99696.27
2023-04-19T11:52:04.678Z,99696.79
2023-04-19T11:54:33.884Z,99694.13
2023-04-19T11:57:03.803Z,99688.84
2023-04-19T11:59:32.409Z,99686.96
2023-04-19T12:02:07.015Z,99688.66
2023-04-19T12:04:35.576Z,99688.64
2023-04-19T12:07:04.694Z,99688.80
2023-04-19T12:09:36.263Z,99688.21
2023-04-19T12:12:04.420Z,99686.88
2023-04-19T12:14:32.528Z,99689.29
2023-04-19T12:17:13.838Z,99688.67
2023-04-19T12:19:46.256Z,99692.08
2023-04-19T12:22:15.008Z,99693.39
2023-04-19T12:24:43.131Z,99696.30
2023-04-19T12:27:11.601Z,99695.86
2023-04-19T12:29:39.635Z,99695.86
2023-04-19T12:32:07.692Z,99698.92
2023-04-19T12:34:35.854Z,99699.80
2023-04-19T12:37:06.837Z,99701.52
2023-04-19T12:39:34.938Z,99699.73
2023-04-19T12:42:03.007Z,99704.94
2023-04-19T12:44:31.149Z,99704.92
2023-04-19T12:46:59.228Z,99709.67
2023-04-19T12:49:27.410Z,99712.66
2023-04-19T12:51:57.238Z,99714.23
2023-04-19T12:54:25.775Z,99717.48
2023-04-19T12:56:54.082Z,99715.45
2023-04-19T12:59:22.337Z,99717.33
2023-04-19T13:01:50.352Z,99720.11
2023-04-19T13:04:18.643Z,99718.66
2023-04-19T13:06:47.341Z,99718.13
2023-04-19T13:09:15.690Z,99715.68
2023-04-19T13:11:43.886Z,99718.52
2023-04-19T13:14:11.840Z,99713.98
2023-04-19T13:16:39.999Z,99713.64
2023-04-19T13:19:08.000Z,99710.54
2023-04-19T13:21:36.893Z,99710.90
